Portada
METAR-TAF:

METAR-TAF

Aeroports :

Kaunakakai, Hawaii, Estats Units d'Amèrica

latitud: 21-09N, longitud: 157-06W, altitud: 138 m

Observació

L'informe es va fer fa 32 minuts, a les 11:54 UTC
Vent 3 kt del Est
Temperatura 18°C
Humitat 77%
Pressió 1019 hPa
Visibilitat: 16.1 km
Cel clar

METAR: PHMK 251154Z AUTO 10003KT 10SM CLR 18/14 A3008 RMK AO2 SLP187 T01780144 10233 20178 56009 TSNO $

Hora: 02:26 (12:26 UTC)

Pronòstic

L'informe es va fer fa 51 minuts, a les 11:35 UTC
Pronòstic vàlid del 25 a les 12 UTC al 26 a les 12 UTC
Vent 4 kt del Nord
Visibilitat: 10 km
Cel clar
A partir de les 25 a les 2200 UTC
Vent 10 kt del Nord-Est
Visibilitat: 10 km
Núvols disperses a una alçada de 4000 ft
A partir de les 26 a les 1000 UTC
Vent 4 kt del Nord-Est
Visibilitat: 10 km
Escasses núvols a una alçada de 4000 ft

TAF: PHMK 251135Z 2512/2612 01004KT P6SM SKC FM252200 04010KT P6SM SCT040 FM261000 04004KT P6SM FEW040

Observacions i pronòstics meteorològics de més de 4000 aeroports (METAR i TAF).

Les estacions disponibles són els punts grocs i vermells al mapa.

Posi el ratolí al punt desitjat per veure el nom de l'estació.

Feu clic per veure les observacions i els pronòstics meteorològics.

Per canviar el mapa: feu clic els botons verds amb una creu de color negre per apropar; al botó verd amb un guió per allunyar la imatge; o en les fletxes verdes per a mapes adjacents.


METAR-TAF: